Terminal Aerodrome Forecast
Issued by NWS Tampa Bay Area, FL

Home | Current Version | Previous Version | Text Only | Print | Product List | Glossary Off
Versions: 1 2 3 4 5 6 7 8 9 10 11 12 13 14 15 16 17 18 19 20 21 22 23 24 25 26 27 28 29 30 31 32 33 34

000
FTUS42 KTBW 190500 AAC
TAFTPA
TAF AMD
KTPA 190507Z 1905/1924 16006KT P6SM SCT025 BKN040 OVC120
     FM190600 21010KT P6SM VCSH FEW007 SCT020 BKN050
     FM190800 23012KT P6SM VCSH SCT007 BKN020
     FM191200 25013KT P6SM VCSH SCT015 BKN030
     FM191500 27014G22KT P6SM BKN040=

USA.gov is the U.S. government's official web portal to all federal, state and local government web resources and services.